Time,TemperatureF,DewpointF,PressureIn,WindDirection,WindDirectionDegrees,WindSpeedMPH,WindSpeedGustMPH,Humidity,HourlyPrecipIn,Conditions,Clouds,dailyrainin,SolarRadiationWatts/m^2,SoftwareType,DateUTC
2013-02-10 00:00:00,20.0,18.0,-100.00,East,84,3.0,5.0,93,0.00,,,0.00,0.000000,,2013-02-10 06:00:00,
2013-02-10 00:21:00,20.0,18.0,-100.00,East,84,3.0,5.0,93,0.00,,,0.00,0.000000,,2013-02-10 06:21:00,
2013-02-10 00:32:00,20.0,18.0,-100.00,East,84,3.0,5.0,93,0.00,,,0.00,0.000000,,2013-02-10 06:32:00,
2013-02-10 00:42:00,20.0,18.0,-100.00,East,84,3.0,5.0,93,0.00,,,0.00,0.000000,,2013-02-10 06:42:00,
2013-02-10 00:52:00,20.0,18.0,-100.00,East,84,3.0,5.0,93,0.00,,,0.00,0.000000,,2013-02-10 06:52:00,
2013-02-10 01:00:00,20.0,18.0,-100.00,East,96,3.0,5.0,93,0.00,,,0.00,0.000000,,2013-02-10 07:00:00,
2013-02-10 01:32:00,20.0,18.0,-100.00,East,96,3.0,5.0,93,0.00,,,0.00,0.000000,,2013-02-10 07:32:00,
2013-02-10 01:42:00,20.0,18.0,-100.00,East,96,3.0,5.0,93,0.00,,,0.00,0.000000,,2013-02-10 07:42:00,
2013-02-10 01:52:00,20.0,18.0,-100.00,East,96,3.0,5.0,93,0.00,,,0.00,0.000000,,2013-02-10 07:52:00,
2013-02-10 02:00:00,20.0,18.0,-100.00,ESE,108,2.0,5.0,93,0.00,,,0.00,0.000000,,2013-02-10 08:00:00,
2013-02-10 02:32:00,20.0,18.0,-100.00,ESE,108,2.0,5.0,93,0.00,,,0.00,0.000000,,2013-02-10 08:32:00,
2013-02-10 02:43:00,20.0,18.0,-100.00,ESE,108,2.0,5.0,93,0.00,,,0.00,0.000000,,2013-02-10 08:43:00,
2013-02-10 02:52:00,20.0,18.0,-100.00,ESE,108,2.0,5.0,93,0.00,,,0.00,0.000000,,2013-02-10 08:52:00,
2013-02-10 03:00:00,20.0,18.0,-100.00,East,96,3.0,5.0,93,0.00,,,0.00,0.000000,,2013-02-10 09:00:00,
2013-02-10 03:21:00,20.0,18.0,-100.00,East,96,3.0,5.0,93,0.00,,,0.00,0.000000,,2013-02-10 09:21:00,
2013-02-10 03:32:00,20.0,18.0,-100.00,East,96,3.0,5.0,93,0.00,,,0.00,0.000000,,2013-02-10 09:32:00,
2013-02-10 03:42:00,20.0,18.0,-100.00,East,96,3.0,5.0,93,0.00,,,0.00,0.000000,,2013-02-10 09:42:00,
2013-02-10 03:52:00,20.0,18.0,-100.00,East,96,3.0,5.0,93,0.00,,,0.00,0.000000,,2013-02-10 09:52:00,
2013-02-10 04:00:00,21.0,19.0,-100.00,ESE,106,3.0,7.0,93,0.00,,,0.00,0.000000,,2013-02-10 10:00:00,
2013-02-10 04:32:00,21.0,19.0,-100.00,ESE,106,3.0,7.0,93,0.00,,,0.00,0.000000,,2013-02-10 10:32:00,
2013-02-10 04:42:00,21.0,19.0,-100.00,ESE,106,3.0,7.0,93,0.00,,,0.00,0.000000,,2013-02-10 10:42:00,
2013-02-10 04:52:00,21.0,19.0,-100.00,ESE,106,3.0,7.0,93,0.00,,,0.00,0.000000,,2013-02-10 10:52:00,
2013-02-10 05:00:00,21.0,19.0,-100.00,East,101,5.0,9.0,92,0.00,,,0.00,0.000000,,2013-02-10 11:00:00,
2013-02-10 05:22:00,21.0,19.0,-100.00,East,101,5.0,9.0,92,0.00,,,0.00,0.000000,,2013-02-10 11:22:00,
2013-02-10 05:32:00,21.0,19.0,-100.00,East,101,5.0,9.0,92,0.00,,,0.00,0.000000,,2013-02-10 11:32:00,
2013-02-10 05:42:00,21.0,19.0,-100.00,East,101,5.0,9.0,92,0.00,,,0.00,0.000000,,2013-02-10 11:42:00,
2013-02-10 05:52:00,21.0,19.0,-100.00,East,101,5.0,9.0,92,0.00,,,0.00,0.000000,,2013-02-10 11:52:00,
2013-02-10 09:00:00,23.0,21.0,-100.00,East,99,5.0,11.0,92,-99.99,,,0.00,27.000000,,2013-02-10 15:00:00,
2013-02-10 09:32:00,23.0,21.0,-100.00,East,99,5.0,11.0,92,-99.99,,,0.00,27.000000,,2013-02-10 15:32:00,
2013-02-10 09:42:00,23.0,21.0,-100.00,East,99,5.0,11.0,92,-99.99,,,0.00,27.000000,,2013-02-10 15:42:00,
2013-02-10 09:52:00,23.0,21.0,-100.00,East,99,5.0,11.0,92,-99.99,,,0.00,27.000000,,2013-02-10 15:52:00,
2013-02-10 10:00:00,24.0,22.0,-100.00,ESE,106,5.0,14.0,92,0.00,,,0.00,57.000000,,2013-02-10 16:00:00,
2013-02-10 10:32:00,24.0,22.0,-100.00,ESE,106,5.0,14.0,92,0.00,,,0.00,57.000000,,2013-02-10 16:32:00,
2013-02-10 10:42:00,24.0,22.0,-100.00,ESE,106,5.0,14.0,92,0.00,,,0.00,57.000000,,2013-02-10 16:42:00,
2013-02-10 10:52:00,24.0,22.0,-100.00,ESE,106,5.0,14.0,92,0.00,,,0.00,57.000000,,2013-02-10 16:52:00,
2013-02-10 11:00:00,25.0,23.0,-100.00,ESE,106,6.0,13.0,93,0.00,,,0.00,39.000000,,2013-02-10 17:00:00,
2013-02-10 11:32:00,25.0,23.0,-100.00,ESE,106,6.0,13.0,93,0.00,,,0.00,39.000000,,2013-02-10 17:32:00,
2013-02-10 11:42:00,25.0,23.0,-100.00,ESE,106,6.0,13.0,93,0.00,,,0.00,39.000000,,2013-02-10 17:42:00,
2013-02-10 11:52:00,25.0,23.0,-100.00,ESE,106,6.0,13.0,93,0.00,,,0.00,39.000000,,2013-02-10 17:52:00,
2013-02-10 12:00:00,27.0,25.0,-100.00,East,101,7.0,15.0,92,0.00,,,0.00,65.000000,,2013-02-10 18:00:00,
2013-02-10 12:32:00,27.0,25.0,-100.00,East,101,7.0,15.0,92,0.00,,,0.00,65.000000,,2013-02-10 18:32:00,
2013-02-10 12:42:00,27.0,25.0,-100.00,East,101,7.0,15.0,92,0.00,,,0.00,65.000000,,2013-02-10 18:42:00,
2013-02-10 12:52:00,27.0,25.0,-100.00,East,101,7.0,15.0,92,0.00,,,0.00,65.000000,,2013-02-10 18:52:00,
2013-02-10 13:00:00,28.0,26.0,-100.00,East,98,8.0,16.0,92,0.00,,,0.00,67.000000,,2013-02-10 19:00:00,
2013-02-10 13:32:00,28.0,26.0,-100.00,East,98,8.0,16.0,92,0.00,,,0.00,67.000000,,2013-02-10 19:32:00,
2013-02-10 13:43:00,28.0,26.0,-100.00,East,98,8.0,16.0,92,0.00,,,0.00,67.000000,,2013-02-10 19:43:00,
2013-02-10 13:52:00,28.0,26.0,-100.00,East,98,8.0,16.0,92,0.00,,,0.00,67.000000,,2013-02-10 19:52:00,
2013-02-10 14:00:00,30.0,28.0,-100.00,East,97,10.0,20.0,93,0.00,,,0.00,47.000000,,2013-02-10 20:00:00,
2013-02-10 14:22:00,30.0,28.0,-100.00,East,97,10.0,20.0,93,0.00,,,0.00,47.000000,,2013-02-10 20:22:00,
2013-02-10 14:32:00,30.0,28.0,-100.00,East,97,10.0,20.0,93,0.00,,,0.00,47.000000,,2013-02-10 20:32:00,
2013-02-10 14:42:00,30.0,28.0,-100.00,East,97,10.0,20.0,93,0.00,,,0.00,47.000000,,2013-02-10 20:42:00,
2013-02-10 14:52:00,30.0,28.0,-100.00,East,97,10.0,20.0,93,0.00,,,0.00,47.000000,,2013-02-10 20:52:00,
2013-02-10 15:00:00,31.0,29.0,-100.00,ESE,111,6.0,19.0,94,0.00,,,0.00,27.000000,,2013-02-10 21:00:00,
2013-02-10 15:32:00,31.0,29.0,-100.00,ESE,111,6.0,19.0,94,0.00,,,0.00,27.000000,,2013-02-10 21:32:00,
2013-02-10 15:42:00,31.0,29.0,-100.00,ESE,111,6.0,19.0,94,0.00,,,0.00,27.000000,,2013-02-10 21:42:00,
2013-02-10 15:52:00,31.0,29.0,-100.00,ESE,111,6.0,19.0,94,0.00,,,0.00,27.000000,,2013-02-10 21:52:00,
2013-02-10 16:00:00,31.0,30.0,-100.00,ESE,106,4.0,18.0,96,0.00,,,0.00,13.000000,,2013-02-10 22:00:00,
2013-02-10 16:32:00,31.0,30.0,-100.00,ESE,106,4.0,18.0,96,0.00,,,0.00,13.000000,,2013-02-10 22:32:00,
2013-02-10 16:42:00,31.0,30.0,-100.00,ESE,106,4.0,18.0,96,0.00,,,0.00,13.000000,,2013-02-10 22:42:00,
2013-02-10 16:52:00,31.0,30.0,-100.00,ESE,106,4.0,18.0,96,0.00,,,0.00,13.000000,,2013-02-10 22:52:00,
2013-02-10 17:00:00,31.0,30.0,-100.00,ESE,111,4.0,9.0,97,0.00,,,0.00,3.000000,,2013-02-10 23:00:00,
2013-02-10 17:22:00,31.0,30.0,-100.00,ESE,111,4.0,9.0,97,0.00,,,0.00,3.000000,,2013-02-10 23:22:00,
2013-02-10 17:32:00,31.0,30.0,-100.00,ESE,111,4.0,9.0,97,0.00,,,0.00,3.000000,,2013-02-10 23:32:00,
2013-02-10 17:42:00,31.0,30.0,-100.00,ESE,111,4.0,9.0,97,0.00,,,0.00,3.000000,,2013-02-10 23:42:00,
2013-02-10 17:52:00,31.0,30.0,-100.00,ESE,111,4.0,9.0,97,0.00,,,0.00,3.000000,,2013-02-10 23:52:00,
2013-02-10 18:00:00,32.0,31.0,-100.00,ESE,112,4.0,8.0,97,0.00,,,0.00,2.000000,,2013-02-11 00:00:00,
2013-02-10 18:32:00,32.0,31.0,-100.00,ESE,112,4.0,8.0,97,0.00,,,0.00,2.000000,,2013-02-11 00:32:00,
2013-02-10 18:42:00,32.0,31.0,-100.00,ESE,112,4.0,8.0,97,0.00,,,0.00,2.000000,,2013-02-11 00:42:00,
2013-02-10 18:52:00,32.0,31.0,-100.00,ESE,112,4.0,8.0,97,0.00,,,0.00,2.000000,,2013-02-11 00:52:00,
2013-02-10 19:00:00,32.0,32.0,-100.00,ESE,111,3.0,8.0,98,0.00,,,-99.99,0.000000,,2013-02-11 01:00:00,
2013-02-10 19:32:00,32.0,32.0,-100.00,ESE,111,3.0,8.0,98,0.00,,,-99.99,0.000000,,2013-02-11 01:32:00,
2013-02-10 19:42:00,32.0,32.0,-100.00,ESE,111,3.0,8.0,98,0.00,,,-99.99,0.000000,,2013-02-11 01:42:00,
2013-02-10 19:52:00,32.0,32.0,-100.00,ESE,111,3.0,8.0,98,0.00,,,-99.99,0.000000,,2013-02-11 01:52:00,
2013-02-10 20:00:00,32.0,32.0,-100.00,ESE,110,3.0,8.0,98,0.00,,,0.00,0.000000,,2013-02-11 02:00:00,
2013-02-10 20:32:00,32.0,32.0,-100.00,ESE,110,3.0,8.0,98,0.00,,,0.00,0.000000,,2013-02-11 02:32:00,
2013-02-10 20:42:00,32.0,32.0,-100.00,ESE,110,3.0,8.0,98,0.00,,,0.00,0.000000,,2013-02-11 02:42:00,
2013-02-10 20:52:00,32.0,32.0,-100.00,ESE,110,3.0,8.0,98,0.00,,,0.00,0.000000,,2013-02-11 02:52:00,
2013-02-10 21:00:00,32.0,32.0,-100.00,ESE,102,2.0,7.0,98,0.00,,,-99.99,0.000000,,2013-02-11 03:00:00,
2013-02-10 21:21:00,32.0,32.0,-100.00,ESE,102,2.0,7.0,98,0.00,,,-99.99,0.000000,,2013-02-11 03:21:00,
2013-02-10 21:32:00,32.0,32.0,-100.00,ESE,102,2.0,7.0,98,0.00,,,-99.99,0.000000,,2013-02-11 03:32:00,
2013-02-10 21:42:00,32.0,32.0,-100.00,ESE,102,2.0,7.0,98,0.00,,,-99.99,0.000000,,2013-02-11 03:42:00,
2013-02-10 21:52:00,32.0,32.0,-100.00,ESE,102,2.0,7.0,98,0.00,,,-99.99,0.000000,,2013-02-11 03:52:00,
2013-02-10 22:00:00,32.0,32.0,-100.00,East,90,3.0,6.0,98,0.00,,,0.00,0.000000,,2013-02-11 04:00:00,
2013-02-10 22:22:00,32.0,32.0,-100.00,East,90,3.0,6.0,98,0.00,,,0.00,0.000000,,2013-02-11 04:22:00,
2013-02-10 22:32:00,32.0,32.0,-100.00,East,90,3.0,6.0,98,0.00,,,0.00,0.000000,,2013-02-11 04:32:00,
2013-02-10 22:42:00,32.0,32.0,-100.00,East,90,3.0,6.0,98,0.00,,,0.00,0.000000,,2013-02-11 04:42:00,
2013-02-10 22:52:00,32.0,32.0,-100.00,East,90,3.0,6.0,98,0.00,,,0.00,0.000000,,2013-02-11 04:52:00,
2013-02-10 23:00:00,32.0,32.0,-100.00,ENE,74,2.0,6.0,98,0.00,,,0.00,0.000000,,2013-02-11 05:00:00,
2013-02-10 23:22:00,32.0,32.0,-100.00,ENE,74,2.0,6.0,98,0.00,,,0.00,0.000000,,2013-02-11 05:22:00,
2013-02-10 23:32:00,32.0,32.0,-100.00,ENE,74,2.0,6.0,98,0.00,,,0.00,0.000000,,2013-02-11 05:32:00,
2013-02-10 23:42:00,32.0,32.0,-100.00,ENE,74,2.0,6.0,98,0.00,,,0.00,0.000000,,2013-02-11 05:42:00,
2013-02-10 23:53:00,32.0,32.0,-100.00,ENE,74,2.0,6.0,98,0.00,,,0.00,0.000000,,2013-02-11 05:53:00,